Search for airport 
image banner adimage banner ad
image banner ad

EKKU - Kirkja

Located in Kirkja, Faroe Islands

ICAO - , IATA -

Data provided by Airmate  

General information

Coordinates: N62°19'2" W6°18'48"
Elevation is 135 feet MSL.
Magnetic variation is -8° East
View others Airports in (unassigned)

Operational data

Open for public use
Current time UTC:
Current local time:
Weather at : EKVG - Vagar ( 57 km )
METAR: EKVG 280920Z AUTO VRB02KT 9999 BKN022/// M01/M04 Q1007
TAF: TAF EKVG 280807Z 2809/2818 01008KT 9999 FEW022 BKN030 PROB30 TEMPO 2810/2815 3000 -SHSN BKN015TCU
View NOTAMs / SUP AIP / TFR affecting this airport [VIEW]
Communications frequencies: [VIEW]

Runways:

Airport contact information

Address: Kirkja Faroe Islands

Satellite view of EKKU